• Join FlightAware (Why Join?)
  • Login
  • US Flag 
12:07PM EDT


 

Airport Tracker/Info


-or-


 

Live Flight TrackerFlight Track Log ✈ ASH3770 ✈ 19-Apr-2013 ✈ KIAD - KAUS

Flight Track Log - Related Links

Times and Time Zones

All times are in EDT time to prevent confusion due to time zone crossing. See the ASH3770 flight status page for this flight to view local times or setup timezone preferences in your user account.

Time Position Orientation Groundspeed Altitude Reporting Facility
EDT Latitude Longitude Course Direction KTS MPH feet Rate Location/Type
12:55PM 38.9000 -77.4500 243° Southwest 187 215 2,000  Level Potomac TRACON
12:56PM 38.8667 -77.5333 243° Southwest 247 284 5,200 2,700 Climbing Potomac TRACON
12:58PM 38.8642 -77.6631 269° West 252 290 9,800 2,280 Climbing Washington Center
12:59PM 38.8625 -77.7644 269° West 252 290 11,600 1,560 Climbing Washington Center
01:00PM 38.8628 -77.8603 270° West 285 328 13,000 1,440 Climbing Washington Center
01:01PM 38.8583 -77.9856 267° West 308 354 14,500 1,560 Climbing Washington Center
01:02PM 38.8558 -78.1056 269° West 321 369 16,200 1,980 Climbing Washington Center
01:03PM 38.8533 -78.2281 269° West 332 382 18,500 1,800 Climbing Washington Center
01:04PM 38.8525 -78.3533 270° West 343 395 19,800 1,800 Climbing Washington Center
01:05PM 38.8517 -78.4786 270° West 356 410 22,100 1,440 Climbing Washington Center
01:06PM 38.8506 -78.6064 269° West 356 410 22,700 780 Climbing Washington Center
01:07PM 38.8494 -78.7317 269° West 361 415 23,700 1,020 Climbing Washington Center
01:08PM 38.8481 -78.8594 269° West 361 415 24,800 1,020 Climbing Washington Center
01:09PM 38.8467 -78.9928 269° West 366 421 25,800 540 Climbing Washington Center
01:10PM 38.8428 -79.1258 268° West 371 427 26,000 60 Climbing Washington Center
01:11PM 38.8303 -79.2639 263° West 382 440 26,000  Level Washington Center
01:12PM 38.8072 -79.3986 258° West 387 445 26,000  Level Washington Center
01:13PM 38.7819 -79.5358 257° West 392 451 26,000  Level Washington Center
01:14PM 38.7589 -79.6622 257° West 402 463 26,000  Level Washington Center
01:15PM 38.7336 -79.7914 256° West 402 463 26,000  Level Washington Center
01:16PM 38.7103 -79.9231 257° West 391 450 26,000  Level Washington Center
01:17PM 38.6822 -80.0650 256° West 391 450 26,000  Level Washington Center
01:18PM 38.6617 -80.1678 256° West 374 430 26,000  Level Indianapolis Center
01:19PM 38.6375 -80.2958 256° West 371 427 26,000  Level Indianapolis Center
01:20PM 38.6142 -80.4242 257° West 371 427 26,000  Level Indianapolis Center
01:21PM 38.5900 -80.5517 256° West 367 422 26,000  Level Indianapolis Center
01:22PM 38.5650 -80.6808 256° West 373 429 26,000  Level Indianapolis Center
01:23PM 38.5403 -80.8106 256° West 375 432 26,000  Level Indianapolis Center
01:24PM 38.5108 -80.9633 256° West 368 423 26,000  Level Indianapolis Center
01:25PM 38.4853 -81.0906 256° West 369 425 26,000 420 Level Indianapolis Center
01:26PM 38.4594 -81.2200 256° West 373 429 26,900 960 Climbing Indianapolis Center
01:27PM 38.4342 -81.3506 256° West 375 432 28,100 1,200 Climbing Indianapolis Center
01:28PM 38.4086 -81.4789 256° West 372 428 29,400 1,200 Climbing Indianapolis Center
01:29PM 38.3833 -81.6050 256° West 365 420 30,600 1,140 Climbing Indianapolis Center
01:30PM 38.3583 -81.7281 256° West 356 410 31,800 1,320 Climbing Indianapolis Center
01:31PM 38.3283 -81.8461 252° West 351 404 33,400 1,260 Climbing Indianapolis Center
01:32PM 38.2983 -81.9547 251° West 329 379 34,400 960 Climbing Indianapolis Center
01:33PM 38.2681 -82.0622 250° West 324 373 35,400 780 Climbing Indianapolis Center
01:34PM 38.2378 -82.1689 250° West 319 367 36,000 240 Climbing Indianapolis Center
01:35PM 38.2008 -82.2978 250° West 329 379 36,000  Level Indianapolis Center
01:36PM 38.1686 -82.4100 250° West 337 388 36,000  Level Indianapolis Center
01:37PM 38.1375 -82.5197 250° West 341 392 36,000  Level Indianapolis Center
01:38PM 38.1056 -82.6333 250° West 340 391 36,000  Level Indianapolis Center
01:39PM 38.0719 -82.7464 249° West 341 392 36,000  Level Indianapolis Center
01:40PM 38.0350 -82.8781 250° West 339 390 36,000  Level Indianapolis Center
01:41PM 38.0022 -82.9897 250° West 339 390 36,000  Level Indianapolis Center
01:42PM 37.9700 -83.1003 250° West 335 386 36,000  Level Indianapolis Center
01:43PM 37.9375 -83.2111 250° West 334 384 36,000  Level Indianapolis Center
01:44PM 37.9047 -83.3211 249° West 334 384 36,000  Level Indianapolis Center
01:46PM 37.8719 -83.4319 249° West 336 387 36,000  Level Indianapolis Center
01:47PM 37.8342 -83.5592 249° West 335 386 36,000  Level Indianapolis Center
01:48PM 37.8017 -83.6697 250° West 334 384 36,000  Level Indianapolis Center
01:49PM 37.7678 -83.7806 249° West 337 388 36,000  Level Indianapolis Center
01:50PM 37.7339 -83.8903 249° West 336 387 36,000  Level Indianapolis Center
01:51PM 37.7011 -84.0008 249° West 336 387 36,000  Level Indianapolis Center
01:52PM 37.6672 -84.1108 249° West 337 388 36,000  Level Indianapolis Center
01:53PM 37.6278 -84.2417 249° West 340 391 36,000  Level Indianapolis Center
01:54PM 37.5939 -84.3508 249° West 337 388 36,000  Level Indianapolis Center
01:56PM 37.5267 -84.5706 249° West 337 388 36,000  Level Indianapolis Center
01:57PM 37.4917 -84.6803 248° West 338 389 36,000  Level Indianapolis Center
01:58PM 37.4583 -84.7903 249° West 337 388 36,000  Level Indianapolis Center
01:59PM 37.4175 -84.9186 248° West 336 387 36,000  Level Indianapolis Center
02:00PM 37.3828 -85.0289 248° West 338 389 36,000  Level Indianapolis Center
02:01PM 37.3478 -85.1392 248° West 339 390 36,000  Level Indianapolis Center
02:02PM 37.3136 -85.2492 249° West 338 389 36,000  Level Indianapolis Center
02:03PM 37.2783 -85.3586 248° West 338 389 36,000  Level Indianapolis Center
02:04PM 37.2447 -85.4675 249° West 335 386 36,000  Level Indianapolis Center
02:05PM 37.2067 -85.5847 248° West 335 386 36,000  Level Indianapolis Center
02:05PM 37.1939 -85.6308 251° West 334 384 36,000  Level Memphis Center
02:06PM 37.1564 -85.7372 246° West 339 390 36,000  Level Memphis Center
02:07PM 37.1228 -85.8483 249° West 339 390 36,000  Level Memphis Center
02:08PM 37.0872 -85.9569 248° West 339 390 36,000  Level Memphis Center
02:09PM 37.0514 -86.0656 248° West 339 390 36,000  Level Memphis Center
02:10PM 37.0156 -86.1742 248° West 339 390 36,000  Level Memphis Center
02:11PM 36.9817 -86.2822 249° West 344 396 36,000  Level Memphis Center
02:12PM 36.9456 -86.3931 248° West 336 387 36,000  Level Memphis Center
02:13PM 36.9008 -86.4939 241° Southwest 341 392 36,000  Level Memphis Center
02:14PM 36.8497 -86.5925 237° Southwest 341 392 36,000  Level Memphis Center
02:15PM 36.7964 -86.6908 236° Southwest 346 398 36,000  Level Memphis Center
02:16PM 36.7511 -86.7783 237° Southwest 341 392 36,000  Level Memphis Center
02:17PM 36.6975 -86.8764 236° Southwest 341 392 36,000  Level Memphis Center
02:18PM 36.6461 -86.9742 237° Southwest 341 392 36,000  Level Memphis Center
02:19PM 36.5944 -87.0694 236° Southwest 341 392 36,000  Level Memphis Center
02:20PM 36.5406 -87.1672 236° Southwest 341 392 36,000  Level Memphis Center
02:21PM 36.4889 -87.2647 237° Southwest 341 392 36,000  Level Memphis Center
02:22PM 36.4350 -87.3622 236° Southwest 341 392 36,000  Level Memphis Center
02:23PM 36.3831 -87.4569 236° Southwest 336 387 36,000  Level Memphis Center
02:24PM 36.3269 -87.5569 235° Southwest 341 392 36,000  Level Memphis Center
02:25PM 36.2750 -87.6514 236° Southwest 341 392 36,000  Level Memphis Center
02:26PM 36.2208 -87.7483 235° Southwest 341 392 36,000  Level Memphis Center
02:27PM 36.1625 -87.8556 236° Southwest 347 399 36,000  Level Memphis Center
02:28PM 36.1061 -87.9550 235° Southwest 353 406 36,000  Level Memphis Center
02:29PM 36.0517 -88.0514 235° Southwest 353 406 36,000  Level Memphis Center
02:30PM 36.0053 -88.1350 236° Southwest 344 396 36,000  Level Memphis Center
02:31PM 35.9506 -88.2339 236° Southwest 339 390 36,000  Level Memphis Center
02:32PM 35.8958 -88.3300 235° Southwest 339 390 36,000  Level Memphis Center
02:33PM 35.8372 -88.4339 235° Southwest 339 390 36,000  Level Memphis Center
02:34PM 35.7781 -88.5325 235° Southwest 339 390 36,000  Level Memphis Center
02:35PM 35.7748 -88.5429 235° Southwest  Level FlightAware Approximate
02:35PM 35.7253 -88.6308 237° Southwest 339 390 36,000  Level Memphis Center
02:36PM 35.6683 -88.7292 235° Southwest 344 396 36,000  Level Memphis Center
02:37PM 35.6214 -88.8194 237° Southwest 344 396 36,000  Level Memphis Center
02:38PM 35.5600 -88.9125 231° Southwest 350 403 36,000 180 Level Memphis Center
02:39PM 35.4817 -88.9853 217° Southwest 356 410 36,400 600 Climbing Memphis Center
02:40PM 35.3969 -89.0656 218° Southwest 361 415 37,200 480 Climbing Memphis Center
02:42PM 35.3344 -89.1727 234° Southwest  Level FlightAware Approximate
02:42PM 35.2903 -89.2581 234° Southwest 346 398 38,000  Level Memphis Center
02:44PM 35.1692 -89.4630 236° Southwest  Level FlightAware Approximate
02:44PM 35.1792 -89.4603 236° Southwest 351 404 38,000  Level Memphis Center
02:45PM 35.1236 -89.5572 235° Southwest 351 404 38,000  Level Memphis Center
02:46PM 35.0681 -89.6569 236° Southwest 351 404 38,000  Level Memphis Center
02:47PM 35.0142 -89.7586 237° Southwest 351 404 38,000  Level Memphis Center
02:48PM 34.9522 -89.8631 234° Southwest 362 417 38,000  Level Memphis Center
02:49PM 34.8961 -89.9672 237° Southwest 374 430 38,000  Level Memphis Center
02:50PM 34.8381 -90.0686 235° Southwest 374 430 38,000  Level Memphis Center
02:51PM 34.7797 -90.1675 234° Southwest 374 430 38,000  Level Memphis Center
02:52PM 34.7214 -90.2661 234° Southwest 366 421 38,000  Level Memphis Center
02:53PM 34.6653 -90.3672 236° Southwest 366 421 38,000  Level Memphis Center
02:54PM 34.6089 -90.4656 235° Southwest 366 421 38,000  Level Memphis Center
02:55PM 34.5503 -90.5639 234° Southwest 366 421 38,000  Level Memphis Center
02:56PM 34.4936 -90.6647 236° Southwest 366 421 38,000  Level Memphis Center
02:57PM 34.4433 -90.7525 235° Southwest 366 421 38,000  Level Memphis Center
02:58PM 34.3825 -90.8531 234° Southwest 366 421 38,000  Level Memphis Center
02:59PM 34.3258 -90.9533 236° Southwest 366 421 38,000  Level Memphis Center
03:00PM 34.2689 -91.0533 235° Southwest 366 421 38,000  Level Memphis Center
03:01PM 34.2100 -91.1508 234° Southwest 366 421 38,000  Level Memphis Center
03:02PM 34.1528 -91.2483 235° Southwest 366 421 38,000  Level Memphis Center
03:03PM 34.0894 -91.3556 235° Southwest 366 421 38,000  Level Memphis Center
03:04PM 34.0281 -91.4550 233° Southwest 366 421 38,000  Level Memphis Center
03:05PM 33.9731 -91.5544 236° Southwest 361 415 38,000  Level Memphis Center
03:06PM 33.9114 -91.6511 232° Southwest 366 421 38,000  Level Memphis Center
03:09PM 33.7861 -91.8733 236° Southwest 359 413 38,000  Level Fort Worth Center
03:10PM 33.7258 -91.9719 234° Southwest 364 419 38,000  Level Fort Worth Center
03:11PM 33.6672 -92.0703 234° Southwest 369 425 38,000  Level Fort Worth Center
03:12PM 33.6067 -92.1689 234° Southwest 374 430 38,000  Level Fort Worth Center
03:13PM 33.5481 -92.2644 234° Southwest 374 430 38,000  Level Fort Worth Center
03:14PM 33.4875 -92.3653 234° Southwest 374 430 38,000  Level Fort Worth Center
03:15PM 33.4308 -92.4631 235° Southwest 374 430 38,000  Level Fort Worth Center
03:16PM 33.3719 -92.5583 234° Southwest 374 430 38,000  Level Fort Worth Center
03:17PM 33.3092 -92.6586 233° Southwest 374 430 38,000  Level Fort Worth Center
03:18PM 33.2522 -92.7561 235° Southwest 374 430 38,000  Level Fort Worth Center
03:19PM 33.2167 -92.8672 249° West 368 423 38,000  Level Fort Worth Center
03:20PM 33.1789 -92.9808 248° West 362 417 38,000  Level Fort Worth Center
03:21PM 33.1411 -93.0944 248° West 362 417 38,000  Level Fort Worth Center
03:22PM 33.1031 -93.2028 247° West 362 417 38,000  Level Fort Worth Center
03:23PM 33.0653 -93.3161 248° West 362 417 38,000  Level Fort Worth Center
03:24PM 33.0292 -93.4292 249° West 362 417 38,000  Level Fort Worth Center
03:25PM 32.9850 -93.5500 246° West 367 422 38,000  Level Fort Worth Center
03:26PM 32.9467 -93.6631 248° West 367 422 38,000  Level Fort Worth Center
03:27PM 32.9103 -93.7736 249° West 367 422 38,000  Level Fort Worth Center
03:28PM 32.8717 -93.8864 248° West 367 422 38,000  Level Fort Worth Center
03:29PM 32.8350 -93.9942 248° West 362 417 38,000  Level Fort Worth Center
03:30PM 32.7961 -94.1044 247° West 362 417 38,000  Level Fort Worth Center
03:31PM 32.7594 -94.2144 248° West 362 417 38,000  Level Fort Worth Center
03:32PM 32.7225 -94.3244 248° West 362 417 38,000  Level Fort Worth Center
03:33PM 32.6833 -94.4294 246° West 362 417 38,000  Level Fort Worth Center
03:34PM 32.6461 -94.5367 248° West 362 417 38,000  Level Fort Worth Center
03:35PM 32.6069 -94.6489 248° West 362 417 38,000  Level Fort Worth Center
03:36PM 32.5675 -94.7611 247° West 362 417 38,000  Level Fort Worth Center
03:37PM 32.5300 -94.8706 248° West 362 417 38,000  Level Fort Worth Center
03:38PM 32.4906 -94.9800 247° West 362 417 38,000  Level Fort Worth Center
03:39PM 32.4569 -95.0819 249° West 362 417 38,000  Level Fort Worth Center
03:40PM 32.4233 -95.1886 250° West 362 417 38,000  Level Fort Worth Center
03:41PM 32.3856 -95.2953 247° West 357 411 38,000  Level Fort Worth Center
03:43PM 32.3036 -95.5208 247° West 362 417 38,000  Level Fort Worth Center
03:44PM 32.2614 -95.6372 247° West 362 417 38,000  Level Fort Worth Center
03:45PM 32.2211 -95.7508 247° West 362 417 38,000  Level Fort Worth Center
03:46PM 32.1789 -95.8622 246° West 362 417 38,000  Level Fort Worth Center
03:47PM 32.1425 -95.9706 248° West 361 415 38,000  Level Fort Worth Center
03:48PM 32.0997 -96.0817 246° West 366 421 38,000  Level Fort Worth Center
03:49PM 32.0592 -96.1950 247° West 372 428 38,000 -300 Level Fort Worth Center
03:50PM 31.9953 -96.2914 232° Southwest 377 434 37,500 -1,080 Descending Fort Worth Center
03:51PM 31.9211 -96.3781 225° Southwest 377 434 35,900 -1,440 Descending Fort Worth Center
03:52PM 31.8547 -96.4569 225° Southwest 377 434 34,700 -1,440 Descending Fort Worth Center
03:53PM 31.7803 -96.5433 225° Southwest 383 441 33,100 -1,380 Descending Fort Worth Center
03:54PM 31.7097 -96.6294 226° Southwest 378 435 32,000 -600 Descending Fort Worth Center
03:55PM 31.6331 -96.7203 225° Southwest 371 427 31,900 -840 Descending Fort Worth Center
03:56PM 31.5625 -96.7989 224° Southwest 365 420 30,400 -1,620 Descending Fort Worth Center
03:57PM 31.4983 -96.8750 225° Southwest 344 396 28,700 -1,620 Descending Houston Center
03:58PM 31.4308 -96.9517 224° Southwest 336 387 27,100 -1,560 Descending Houston Center
03:59PM 31.3644 -97.0294 225° Southwest 335 386 25,500 -1,800 Descending Houston Center
04:00PM 31.2844 -97.1214 224° Southwest 341 392 23,500 -1,980 Descending Houston Center
04:01PM 31.2133 -97.2006 224° Southwest 349 402 21,500 -1,920 Descending Houston Center
04:02PM 31.1186 -97.2444 202° Southwest 362 417 19,500 -1,920 Descending Houston Center
04:03PM 31.0222 -97.2819 198° South 364 419 17,600 -2,160 Descending Houston Center
04:04PM 30.9144 -97.3236 198° South 362 417 15,100 -2,280 Descending Houston Center
04:05PM 30.8242 -97.3581 198° South 345 397 12,900 -2,040 Descending Houston Center
04:06PM 30.7342 -97.3917 198° South 337 388 10,900 -1,440 Descending Houston Center
04:07PM 30.6419 -97.4281 199° South 345 397 10,000 -900 Descending Houston Center
04:08PM 30.5608 -97.4589 198° South 309 356 9,100 -960 Descending Houston Center
04:09PM 30.4814 -97.4889 198° South 300 345 8,100 -1,080 Descending Houston Center
04:10PM 30.3836 -97.4942 183° South 298 343 6,900 -1,020 Descending Houston Center
04:11PM 30.3058 -97.4944 180° South 283 326 6,000 -480 Descending Houston Center
04:12PM 30.2372 -97.5031 186° South 252 290 6,000 -360 Level Houston Center
04:13PM 30.1672 -97.5100 185° South 249 287 5,300 -900 Descending Houston Center
04:14PM 30.1056 -97.5319 197° South 236 272 4,200 -1,020 Descending Houston Center
04:15PM 30.0419 -97.5744 210° Southwest 238 274 3,200 -780 Descending Houston Center
04:16PM 30.0567 -97.6250 289° West 200 230 2,600 -540 Descending Houston Center
04:18PM 30.0956 -97.6567 325° Northwest 162 186 2,200 -540 Descending Houston Center
04:19PM 30.1294 -97.6564 360° North 135 155 1,500 -540 Descending Houston Center
04:20PM 30.1644 -97.6556 North 127 146 1,200 -300 Descending Houston Center